Time;durP1;ratioP1;P1;durP2;ratioP2;P2;SDS_P1;SDS_P2;PMS_P1;PMS_P2;Temp;Humidity;BMP_temperature;BMP_pressure;BME280_temperature;BME280_humidity;BME280_pressure;Samples;Min_cycle;Max_cycle;Signal;HPM_P1;HPM_P2
2023/09/17 00:01:26;;;;;;;11.17;5.07;;;;;;;;;;766576;182;817439;-60
2023/09/17 00:03:52;;;;;;;6.20;5.00;;;;;;;;;;773387;181;925040;-65
2023/09/17 00:06:18;;;;;;;10.30;4.80;;;;;;;;;;774518;180;920506;-60
2023/09/17 00:08:44;;;;;;;5.67;4.73;;;;;;;;;;774479;180;919778;-60
2023/09/17 00:11:10;;;;;;;7.17;4.83;;;;;;;;;;771349;180;919358;-66
2023/09/17 00:13:38;;;;;;;7.32;5.18;;;;;;;;;;776434;178;918612;-60
2023/09/17 00:16:03;;;;;;;9.10;5.17;;;;;;;;;;781304;180;909750;-59
2023/09/17 00:18:29;;;;;;;6.90;4.90;;;;;;;;;;771654;180;919874;-59
2023/09/17 00:20:54;;;;;;;6.27;4.80;;;;;;;;;;770846;180;841097;-59
2023/09/17 00:23:20;;;;;;;8.63;5.55;;;;;;;;;;777143;177;917313;-60
2023/09/17 00:25:46;;;;;;;7.47;5.50;;;;;;;;;;778339;178;918606;-64
2023/09/17 00:28:13;;;;;;;7.53;4.50;;;;;;;;;;777991;177;890896;-64
2023/09/17 00:30:38;;;;;;;6.67;4.70;;;;;;;;;;770321;182;915678;-66
2023/09/17 00:33:04;;;;;;;9.73;4.97;;;;;;;;;;781121;180;918696;-65
2023/09/17 00:35:30;;;;;;;7.80;4.90;;;;;;;;;;772847;178;919185;-66
2023/09/17 00:37:56;;;;;;;8.80;5.30;;;;;;;;;;770118;179;921896;-64
2023/09/17 00:40:23;;;;;;;7.20;5.23;;;;;;;;;;779568;180;919492;-60
2023/09/17 00:42:48;;;;;;;5.57;4.33;;;;;;;;;;768806;178;922309;-59
2023/09/17 00:45:15;;;;;;;7.07;5.10;;;;;;;;;;773290;181;919467;-59
2023/09/17 00:47:40;;;;;;;11.00;5.17;;;;;;;;;;774480;181;924425;-59
2023/09/17 00:50:06;;;;;;;13.20;5.70;;;;;;;;;;773305;181;917004;-65
2023/09/17 00:52:34;;;;;;;11.40;5.10;;;;;;;;;;773158;181;919160;-59
2023/09/17 00:54:59;;;;;;;11.77;5.43;;;;;;;;;;769729;181;1021796;-65
2023/09/17 00:57:25;;;;;;;6.27;5.00;;;;;;;;;;776493;181;918634;-58
2023/09/17 00:59:51;;;;;;;8.50;5.07;;;;;;;;;;773435;178;919394;-65
2023/09/17 01:02:18;;;;;;;9.40;4.80;;;;;;;;;;769825;181;920526;-59
2023/09/17 01:04:42;;;;;;;8.53;5.47;;;;;;;;;;779891;181;819424;-60
2023/09/17 01:07:09;;;;;;;5.90;5.00;;;;;;;;;;776669;180;918368;-60
2023/09/17 01:09:34;;;;;;;7.73;6.17;;;;;;;;;;775246;180;918908;-60
2023/09/17 01:12:01;;;;;;;6.20;5.05;;;;;;;;;;775921;180;858650;-64
2023/09/17 01:14:27;;;;;;;9.90;5.80;;;;;;;;;;772753;181;814806;-65
2023/09/17 01:16:54;;;;;;;7.93;5.00;;;;;;;;;;775177;179;918716;-59
2023/09/17 01:19:18;;;;;;;6.83;4.80;;;;;;;;;;773409;180;920163;-65
2023/09/17 01:21:46;;;;;;;10.97;5.40;;;;;;;;;;778592;181;919497;-65
2023/09/17 01:24:13;;;;;;;7.33;5.20;;;;;;;;;;776364;180;915957;-60
2023/09/17 01:26:37;;;;;;;9.57;5.50;;;;;;;;;;776448;177;916252;-66
2023/09/17 01:29:04;;;;;;;8.23;5.17;;;;;;;;;;779147;178;916019;-65
2023/09/17 01:31:29;;;;;;;6.37;4.77;;;;;;;;;;771523;178;923372;-65
2023/09/17 01:33:55;;;;;;;7.05;5.03;;;;;;;;;;772828;180;924651;-65
2023/09/17 01:36:23;;;;;;;7.72;5.53;;;;;;;;;;781216;179;919021;-60
2023/09/17 01:38:49;;;;;;;13.33;4.80;;;;;;;;;;775202;180;918780;-60
2023/09/17 01:41:15;;;;;;;8.10;5.37;;;;;;;;;;772594;179;816878;-59
2023/09/17 01:43:41;;;;;;;6.17;4.70;;;;;;;;;;775461;181;910848;-60
2023/09/17 01:46:06;;;;;;;9.73;4.90;;;;;;;;;;772986;180;1125652;-59
2023/09/17 01:48:32;;;;;;;7.83;5.43;;;;;;;;;;775055;181;849500;-65
2023/09/17 01:50:59;;;;;;;6.20;4.80;;;;;;;;;;774609;176;918577;-59
2023/09/17 01:53:24;;;;;;;7.07;4.90;;;;;;;;;;779273;180;915451;-66
2023/09/17 01:55:50;;;;;;;7.20;5.67;;;;;;;;;;775762;178;915703;-64
2023/09/17 01:58:17;;;;;;;8.23;5.15;;;;;;;;;;768623;181;917396;-60
2023/09/17 02:00:42;;;;;;;7.30;4.97;;;;;;;;;;772920;180;918567;-60
2023/09/17 02:03:08;;;;;;;5.97;4.37;;;;;;;;;;770622;181;912926;-59
2023/09/17 02:05:33;;;;;;;6.73;5.03;;;;;;;;;;769858;178;916087;-59
2023/09/17 02:07:59;;;;;;;9.67;4.97;;;;;;;;;;774037;178;918440;-60
2023/09/17 02:10:25;;;;;;;6.73;5.10;;;;;;;;;;776339;181;916152;-66
2023/09/17 02:12:51;;;;;;;7.60;5.97;;;;;;;;;;776466;177;917840;-65
2023/09/17 02:15:17;;;;;;;7.90;5.70;;;;;;;;;;775695;178;874488;-60
2023/09/17 02:17:43;;;;;;;10.90;6.17;;;;;;;;;;775751;178;920958;-66
2023/09/17 02:20:11;;;;;;;7.33;4.60;;;;;;;;;;775226;179;918743;-66
2023/09/17 02:22:35;;;;;;;9.63;5.33;;;;;;;;;;766838;180;919433;-67
2023/09/17 02:25:01;;;;;;;8.70;5.40;;;;;;;;;;767664;181;919044;-60
2023/09/17 02:27:26;;;;;;;8.33;6.00;;;;;;;;;;775196;179;943869;-67
2023/09/17 02:29:52;;;;;;;7.13;5.20;;;;;;;;;;776374;180;819711;-60
2023/09/17 02:32:20;;;;;;;14.90;5.37;;;;;;;;;;774128;178;918958;-65
2023/09/17 02:34:44;;;;;;;7.47;5.87;;;;;;;;;;781556;180;917260;-60
2023/09/17 02:37:10;;;;;;;9.47;4.67;;;;;;;;;;771532;180;921687;-67
2023/09/17 02:39:36;;;;;;;7.80;5.50;;;;;;;;;;777642;180;918172;-66
2023/09/17 02:42:02;;;;;;;7.33;4.67;;;;;;;;;;776354;181;907185;-67
2023/09/17 02:44:27;;;;;;;5.70;4.37;;;;;;;;;;775147;177;941354;-61
2023/09/17 02:46:53;;;;;;;7.80;4.30;;;;;;;;;;774985;177;916222;-61
2023/09/17 02:49:22;;;;;;;7.70;5.40;;;;;;;;;;776560;180;917238;-60
2023/09/17 02:51:48;;;;;;;9.17;4.43;;;;;;;;;;778383;180;919360;-61
2023/09/17 02:54:14;;;;;;;6.77;5.10;;;;;;;;;;768060;180;1761117;-60
2023/09/17 02:56:40;;;;;;;5.33;4.27;;;;;;;;;;772914;180;921364;-66
2023/09/17 02:59:05;;;;;;;7.57;5.20;;;;;;;;;;775295;180;919369;-67
2023/09/17 03:01:31;;;;;;;7.07;4.90;;;;;;;;;;768531;180;920832;-66
2023/09/17 03:03:57;;;;;;;7.73;5.53;;;;;;;;;;764016;181;936401;-66
2023/09/17 03:06:23;;;;;;;9.27;5.40;;;;;;;;;;774880;180;817459;-61
2023/09/17 03:08:48;;;;;;;9.60;5.23;;;;;;;;;;761500;182;919260;-61
2023/09/17 03:11:15;;;;;;;8.13;4.93;;;;;;;;;;771748;178;919111;-67
2023/09/17 03:13:42;;;;;;;7.43;5.50;;;;;;;;;;775461;181;919254;-60
2023/09/17 03:16:07;;;;;;;7.67;5.00;;;;;;;;;;772814;180;922139;-67
2023/09/17 03:18:33;;;;;;;9.63;5.87;;;;;;;;;;776359;180;914740;-67
2023/09/17 03:20:58;;;;;;;8.43;4.13;;;;;;;;;;777540;181;815224;-60
2023/09/17 03:23:24;;;;;;;7.30;5.00;;;;;;;;;;774859;180;920020;-68
2023/09/17 03:25:50;;;;;;;7.00;5.33;;;;;;;;;;775308;180;918695;-67
2023/09/17 03:28:16;;;;;;;10.50;4.90;;;;;;;;;;772251;180;919889;-60
2023/09/17 03:30:43;;;;;;;7.37;4.60;;;;;;;;;;776665;179;925198;-67
2023/09/17 03:33:08;;;;;;;6.30;4.70;;;;;;;;;;774524;181;919603;-60
2023/09/17 03:35:33;;;;;;;11.63;5.10;;;;;;;;;;771503;181;918339;-67
2023/09/17 03:37:59;;;;;;;8.80;5.00;;;;;;;;;;777021;180;923623;-67
2023/09/17 03:40:25;;;;;;;8.27;4.93;;;;;;;;;;774656;180;918919;-60
2023/09/17 03:42:51;;;;;;;5.53;4.13;;;;;;;;;;774572;180;918915;-60
2023/09/17 03:45:17;;;;;;;6.67;4.53;;;;;;;;;;771886;178;918158;-61
2023/09/17 03:47:43;;;;;;;12.20;5.43;;;;;;;;;;775866;179;816440;-60
2023/09/17 03:50:09;;;;;;;8.87;5.30;;;;;;;;;;777005;180;918883;-67
2023/09/17 03:52:36;;;;;;;8.27;5.00;;;;;;;;;;776736;180;916872;-61
2023/09/17 03:55:01;;;;;;;8.20;5.23;;;;;;;;;;772796;181;917386;-68
2023/09/17 03:57:28;;;;;;;8.33;5.70;;;;;;;;;;773667;181;918459;-61
2023/09/17 03:59:54;;;;;;;7.78;5.30;;;;;;;;;;775031;179;919654;-62
2023/09/17 04:02:20;;;;;;;7.90;5.33;;;;;;;;;;778667;180;922928;-60
2023/09/17 04:04:45;;;;;;;7.00;4.90;;;;;;;;;;773524;181;919440;-62
2023/09/17 04:07:11;;;;;;;12.03;5.53;;;;;;;;;;770876;180;919474;-61
2023/09/17 04:09:36;;;;;;;9.57;4.50;;;;;;;;;;781151;180;920758;-68
2023/09/17 04:12:03;;;;;;;7.83;5.10;;;;;;;;;;768075;181;920711;-61
2023/09/17 04:14:28;;;;;;;6.10;5.10;;;;;;;;;;770631;179;919210;-61
2023/09/17 04:16:54;;;;;;;9.67;5.23;;;;;;;;;;778211;178;914702;-69
2023/09/17 04:19:20;;;;;;;6.50;5.27;;;;;;;;;;778953;180;919104;-68
2023/09/17 04:21:47;;;;;;;9.53;8.00;;;;;;;;;;761513;181;921449;-69
2023/09/17 04:24:12;;;;;;;6.37;4.90;;;;;;;;;;772344;181;918606;-60
2023/09/17 04:26:38;;;;;;;8.23;6.10;;;;;;;;;;776948;178;918512;-70
2023/09/17 04:29:04;;;;;;;9.97;6.20;;;;;;;;;;771864;181;916531;-68
2023/09/17 04:31:29;;;;;;;7.53;5.73;;;;;;;;;;769985;179;916012;-69
2023/09/17 04:33:56;;;;;;;8.67;6.17;;;;;;;;;;778300;178;914458;-69
2023/09/17 04:36:22;;;;;;;11.90;6.53;;;;;;;;;;773232;177;819135;-70
2023/09/17 04:38:47;;;;;;;18.57;6.20;;;;;;;;;;770868;180;920595;-61
2023/09/17 04:41:13;;;;;;;12.30;6.30;;;;;;;;;;778854;181;902676;-62
2023/09/17 04:43:39;;;;;;;14.40;7.87;;;;;;;;;;773567;180;920975;-62
2023/09/17 04:46:04;;;;;;;10.13;6.13;;;;;;;;;;772467;178;910541;-61
2023/09/17 04:48:30;;;;;;;9.70;6.40;;;;;;;;;;773554;181;919154;-60
2023/09/17 04:50:56;;;;;;;6.90;5.60;;;;;;;;;;775589;180;919406;-60
2023/09/17 04:53:22;;;;;;;6.60;5.10;;;;;;;;;;774002;181;921214;-62
2023/09/17 04:55:48;;;;;;;12.10;5.63;;;;;;;;;;773217;179;916407;-68
2023/09/17 04:58:14;;;;;;;7.03;5.37;;;;;;;;;;774306;181;919123;-68
2023/09/17 05:00:40;;;;;;;13.20;7.60;;;;;;;;;;777533;179;818616;-68
2023/09/17 05:03:07;;;;;;;10.23;5.70;;;;;;;;;;771882;181;815820;-68
2023/09/17 05:05:31;;;;;;;8.43;6.47;;;;;;;;;;780357;180;813187;-61
2023/09/17 05:07:57;;;;;;;7.07;5.47;;;;;;;;;;772612;181;918249;-61
2023/09/17 05:10:23;;;;;;;7.23;6.00;;;;;;;;;;772777;181;918566;-68
2023/09/17 05:12:49;;;;;;;9.50;6.00;;;;;;;;;;779530;180;922947;-68
2023/09/17 05:15:15;;;;;;;8.17;6.17;;;;;;;;;;775384;180;920281;-61
2023/09/17 05:17:41;;;;;;;10.32;5.12;;;;;;;;;;769500;178;919837;-61
2023/09/17 05:20:07;;;;;;;7.97;5.90;;;;;;;;;;767015;182;918087;-61
2023/09/17 05:22:33;;;;;;;8.03;5.50;;;;;;;;;;777256;180;920723;-68
2023/09/17 05:24:58;;;;;;;10.47;6.63;;;;;;;;;;774341;181;918343;-67
2023/09/17 05:27:24;;;;;;;9.77;6.03;;;;;;;;;;775891;181;830850;-68
2023/09/17 05:29:50;;;;;;;7.27;5.70;;;;;;;;;;777925;181;918585;-60
2023/09/17 05:32:16;;;;;;;6.85;5.12;;;;;;;;;;777757;176;815945;-60
2023/09/17 05:34:44;;;;;;;8.23;6.00;;;;;;;;;;763922;183;814537;-67
2023/09/17 05:37:08;;;;;;;13.03;6.43;;;;;;;;;;770391;180;917467;-68
2023/09/17 05:39:34;;;;;;;8.97;5.73;;;;;;;;;;764962;180;915249;-68
2023/09/17 05:41:59;;;;;;;9.13;6.57;;;;;;;;;;769270;181;919977;-60
2023/09/17 05:44:25;;;;;;;11.20;7.33;;;;;;;;;;770229;180;913785;-62
2023/09/17 05:46:51;;;;;;;9.27;6.70;;;;;;;;;;771638;178;921543;-62
2023/09/17 05:49:17;;;;;;;9.17;6.07;;;;;;;;;;762941;178;918106;-61
2023/09/17 05:51:43;;;;;;;11.63;6.77;;;;;;;;;;759922;181;919575;-61
2023/09/17 05:54:09;;;;;;;8.70;5.90;;;;;;;;;;779174;179;909979;-61
2023/09/17 05:56:34;;;;;;;8.00;6.77;;;;;;;;;;772476;177;947725;-67
2023/09/17 05:59:00;;;;;;;6.70;5.43;;;;;;;;;;760102;184;923867;-60
2023/09/17 06:01:26;;;;;;;11.00;8.17;;;;;;;;;;771316;181;820270;-67
2023/09/17 06:03:52;;;;;;;11.10;8.20;;;;;;;;;;775410;179;817239;-61
2023/09/17 06:06:18;;;;;;;10.60;7.20;;;;;;;;;;773123;179;902642;-67
2023/09/17 06:08:45;;;;;;;9.98;7.43;;;;;;;;;;774953;178;918104;-61
2023/09/17 06:11:11;;;;;;;13.50;7.90;;;;;;;;;;775799;179;921916;-61
2023/09/17 06:13:36;;;;;;;12.53;8.20;;;;;;;;;;777471;177;944054;-60
2023/09/17 06:16:02;;;;;;;8.57;6.40;;;;;;;;;;776093;180;815072;-68
2023/09/17 06:18:32;;;;;;;9.57;6.13;;;;;;;;;;779667;180;818530;-60
2023/09/17 06:20:54;;;;;;;5.97;5.05;;;;;;;;;;769037;181;919794;-62
2023/09/17 06:23:19;;;;;;;9.60;6.30;;;;;;;;;;775220;180;905283;-61
2023/09/17 06:25:46;;;;;;;6.55;5.18;;;;;;;;;;778176;180;918808;-62
2023/09/17 06:28:11;;;;;;;7.23;6.30;;;;;;;;;;772334;181;917257;-60
2023/09/17 06:30:37;;;;;;;8.00;6.17;;;;;;;;;;771571;178;918571;-67
2023/09/17 06:33:03;;;;;;;8.87;5.47;;;;;;;;;;779021;180;923474;-68
2023/09/17 06:35:29;;;;;;;7.23;5.70;;;;;;;;;;772439;178;918610;-63
2023/09/17 06:37:55;;;;;;;8.13;5.73;;;;;;;;;;769530;180;918895;-61
2023/09/17 06:40:20;;;;;;;7.97;6.10;;;;;;;;;;765484;180;919071;-67
2023/09/17 06:42:46;;;;;;;7.07;6.13;;;;;;;;;;766660;181;883682;-59
2023/09/17 06:45:12;;;;;;;10.27;6.37;;;;;;;;;;773827;178;919852;-67
2023/09/17 06:47:38;;;;;;;8.20;5.93;;;;;;;;;;771273;178;919691;-60
2023/09/17 06:50:04;;;;;;;8.90;5.87;;;;;;;;;;776854;181;918393;-61
2023/09/17 06:52:30;;;;;;;9.73;5.70;;;;;;;;;;771864;177;930921;-66
2023/09/17 06:54:56;;;;;;;6.57;5.78;;;;;;;;;;770541;180;930055;-67
2023/09/17 06:57:22;;;;;;;8.00;6.60;;;;;;;;;;775845;179;813760;-69
2023/09/17 06:59:48;;;;;;;8.43;7.37;;;;;;;;;;758059;181;814073;-60
2023/09/17 07:02:14;;;;;;;6.93;6.13;;;;;;;;;;770292;177;917352;-68
2023/09/17 07:04:39;;;;;;;8.15;6.43;;;;;;;;;;774365;180;826905;-66
2023/09/17 07:07:05;;;;;;;9.13;6.90;;;;;;;;;;773307;181;919005;-68
2023/09/17 07:09:31;;;;;;;9.83;6.50;;;;;;;;;;773156;178;942405;-66
2023/09/17 07:11:57;;;;;;;8.73;7.23;;;;;;;;;;770592;181;919758;-68
2023/09/17 07:14:23;;;;;;;10.27;6.37;;;;;;;;;;780019;180;632742;-66
2023/09/17 07:16:49;;;;;;;8.23;6.20;;;;;;;;;;776104;180;613718;-61
2023/09/17 07:19:15;;;;;;;8.83;6.77;;;;;;;;;;777239;178;624825;-67
2023/09/17 07:21:40;;;;;;;9.50;7.40;;;;;;;;;;782093;180;617616;-60
2023/09/17 07:24:06;;;;;;;12.70;7.50;;;;;;;;;;775735;180;622418;-67
2023/09/17 07:26:32;;;;;;;8.03;7.20;;;;;;;;;;772430;180;630441;-61
2023/09/17 07:28:58;;;;;;;11.63;8.03;;;;;;;;;;770828;181;915326;-60
2023/09/17 07:31:24;;;;;;;11.53;7.00;;;;;;;;;;771046;180;918518;-67
2023/09/17 07:33:50;;;;;;;9.10;6.00;;;;;;;;;;773060;177;918427;-60
2023/09/17 07:36:16;;;;;;;7.60;5.10;;;;;;;;;;767239;177;918412;-62
2023/09/17 07:38:41;;;;;;;7.90;6.70;;;;;;;;;;766387;182;918819;-66
2023/09/17 07:41:08;;;;;;;8.83;6.77;;;;;;;;;;775441;180;816987;-66
2023/09/17 07:43:33;;;;;;;7.10;6.23;;;;;;;;;;773547;178;919991;-59
2023/09/17 07:45:59;;;;;;;8.67;6.20;;;;;;;;;;768126;181;914872;-66
2023/09/17 07:48:25;;;;;;;10.60;6.30;;;;;;;;;;771994;181;919392;-61
2023/09/17 07:50:55;;;;;;;8.47;5.80;;;;;;;;;;774333;177;918497;-65
2023/09/17 07:53:21;;;;;;;7.68;6.75;;;;;;;;;;757729;180;881033;-66
2023/09/17 07:55:47;;;;;;;10.40;5.67;;;;;;;;;;770123;180;913880;-66
2023/09/17 07:58:13;;;;;;;8.53;5.40;;;;;;;;;;770440;178;919120;-61
2023/09/17 08:00:39;;;;;;;7.90;5.37;;;;;;;;;;770343;178;920551;-66
2023/09/17 08:03:05;;;;;;;6.47;4.77;;;;;;;;;;777696;178;881562;-61
2023/09/17 08:05:30;;;;;;;6.40;5.17;;;;;;;;;;775594;180;818997;-61
2023/09/17 08:07:56;;;;;;;9.83;6.30;;;;;;;;;;770402;181;920058;-60
2023/09/17 08:10:22;;;;;;;7.47;5.60;;;;;;;;;;777844;179;919129;-61
2023/09/17 08:12:48;;;;;;;10.03;4.90;;;;;;;;;;774617;181;879698;-67
2023/09/17 08:15:16;;;;;;;10.10;5.53;;;;;;;;;;772815;178;918742;-61
2023/09/17 08:17:40;;;;;;;6.97;5.37;;;;;;;;;;778207;181;818573;-69
2023/09/17 08:20:09;;;;;;;6.33;4.23;;;;;;;;;;773175;179;890119;-68
2023/09/17 08:22:32;;;;;;;6.90;3.67;;;;;;;;;;773963;177;616829;-68
2023/09/17 08:24:58;;;;;;;5.53;4.30;;;;;;;;;;761294;180;918472;-67
2023/09/17 08:27:25;;;;;;;5.00;4.17;;;;;;;;;;777991;180;921137;-61
2023/09/17 08:29:50;;;;;;;6.10;4.27;;;;;;;;;;766345;180;914753;-68
2023/09/17 08:32:15;;;;;;;5.63;3.90;;;;;;;;;;771251;180;820975;-68
2023/09/17 08:34:41;;;;;;;7.90;4.23;;;;;;;;;;780152;177;914881;-68
2023/09/17 08:37:07;;;;;;;5.60;4.10;;;;;;;;;;773186;177;911918;-63
2023/09/17 08:39:33;;;;;;;5.20;4.10;;;;;;;;;;771687;179;832477;-62
2023/09/17 08:41:59;;;;;;;5.80;3.53;;;;;;;;;;778903;179;931791;-62
2023/09/17 08:44:25;;;;;;;6.13;3.90;;;;;;;;;;778480;177;822386;-61
2023/09/17 08:46:52;;;;;;;4.23;3.40;;;;;;;;;;774627;177;916712;-62
2023/09/17 08:49:17;;;;;;;4.10;3.33;;;;;;;;;;765340;180;913760;-62
2023/09/17 08:51:43;;;;;;;5.23;3.40;;;;;;;;;;769798;180;851385;-67
2023/09/17 08:54:08;;;;;;;6.67;3.63;;;;;;;;;;764855;181;921339;-68
2023/09/17 08:56:34;;;;;;;5.77;3.80;;;;;;;;;;772422;180;919627;-62
2023/09/17 08:59:01;;;;;;;8.40;4.10;;;;;;;;;;780015;179;856152;-68
2023/09/17 09:01:27;;;;;;;5.70;4.40;;;;;;;;;;768573;180;919677;-67
2023/09/17 09:03:54;;;;;;;7.37;3.10;;;;;;;;;;767878;180;859411;-67
2023/09/17 09:06:19;;;;;;;5.60;3.57;;;;;;;;;;775838;181;816739;-67
2023/09/17 09:08:45;;;;;;;5.27;3.67;;;;;;;;;;773545;180;919115;-68
2023/09/17 09:11:11;;;;;;;6.70;4.13;;;;;;;;;;774204;180;919399;-61
2023/09/17 09:13:38;;;;;;;5.20;3.40;;;;;;;;;;762839;181;918221;-61
2023/09/17 09:16:03;;;;;;;4.20;3.60;;;;;;;;;;764600;183;920257;-60
2023/09/17 09:18:29;;;;;;;4.43;3.77;;;;;;;;;;770856;180;922885;-68
2023/09/17 09:20:55;;;;;;;5.60;3.80;;;;;;;;;;773422;180;817840;-61
2023/09/17 09:23:20;;;;;;;5.80;3.87;;;;;;;;;;777716;180;816995;-67
2023/09/17 09:25:46;;;;;;;5.07;4.00;;;;;;;;;;769894;179;920826;-68
2023/09/17 09:28:12;;;;;;;5.83;4.30;;;;;;;;;;776232;178;872237;-66
2023/09/17 09:30:38;;;;;;;5.50;3.37;;;;;;;;;;777962;180;920829;-68
2023/09/17 09:33:04;;;;;;;5.20;3.60;;;;;;;;;;773261;180;909055;-67
2023/09/17 09:35:30;;;;;;;5.40;3.43;;;;;;;;;;769913;178;914829;-61
2023/09/17 09:37:56;;;;;;;4.93;3.13;;;;;;;;;;775965;179;915466;-68
2023/09/17 09:40:21;;;;;;;5.37;3.63;;;;;;;;;;767127;180;916705;-61
2023/09/17 09:42:48;;;;;;;7.15;3.70;;;;;;;;;;760082;181;920716;-65
2023/09/17 09:45:15;;;;;;;5.87;3.77;;;;;;;;;;769118;181;816705;-62
2023/09/17 09:47:40;;;;;;;5.40;3.93;;;;;;;;;;772935;180;918703;-65
2023/09/17 09:50:06;;;;;;;6.17;4.10;;;;;;;;;;761572;181;965861;-66
2023/09/17 09:52:32;;;;;;;4.93;3.80;;;;;;;;;;770189;178;905654;-61
2023/09/17 09:54:58;;;;;;;5.10;3.67;;;;;;;;;;778962;181;858314;-60
2023/09/17 09:57:25;;;;;;;4.70;3.30;;;;;;;;;;770714;180;918951;-65
2023/09/17 09:59:50;;;;;;;7.17;4.80;;;;;;;;;;772191;179;814763;-60
2023/09/17 10:02:15;;;;;;;4.50;3.50;;;;;;;;;;780921;180;897534;-65
2023/09/17 10:04:41;;;;;;;6.07;3.13;;;;;;;;;;775928;180;919690;-66
2023/09/17 10:07:07;;;;;;;6.30;3.80;;;;;;;;;;772658;178;918480;-61
2023/09/17 10:09:33;;;;;;;4.10;3.23;;;;;;;;;;777921;180;920975;-65
2023/09/17 10:11:59;;;;;;;8.53;3.43;;;;;;;;;;772692;178;920646;-67
2023/09/17 10:14:25;;;;;;;7.70;3.77;;;;;;;;;;772623;180;817872;-60
2023/09/17 10:16:51;;;;;;;3.90;3.00;;;;;;;;;;773105;181;918913;-65
2023/09/17 10:19:20;;;;;;;4.40;3.57;;;;;;;;;;780700;180;919849;-66
2023/09/17 10:21:43;;;;;;;6.10;3.83;;;;;;;;;;772167;181;922315;-59
2023/09/17 10:24:09;;;;;;;6.63;3.47;;;;;;;;;;768260;181;820141;-60
2023/09/17 10:26:41;;;;;;;5.17;3.90;;;;;;;;;;778064;180;752299;-61
2023/09/17 10:29:02;;;;;;;4.47;4.07;;;;;;;;;;774464;180;919830;-65
2023/09/17 10:31:27;;;;;;;10.53;3.90;;;;;;;;;;773607;177;937792;-64
2023/09/17 10:33:53;;;;;;;4.57;3.60;;;;;;;;;;761101;180;817111;-59
2023/09/17 10:36:19;;;;;;;5.30;3.80;;;;;;;;;;767043;181;914050;-60
2023/09/17 10:38:46;;;;;;;5.37;4.33;;;;;;;;;;770836;181;918136;-65
2023/09/17 10:41:10;;;;;;;5.57;4.27;;;;;;;;;;773241;180;919602;-66
2023/09/17 10:43:36;;;;;;;7.03;3.50;;;;;;;;;;770080;181;919711;-66
2023/09/17 10:46:02;;;;;;;4.30;3.33;;;;;;;;;;773729;179;819322;-60
2023/09/17 10:48:28;;;;;;;4.93;3.80;;;;;;;;;;770653;181;922145;-65
2023/09/17 10:50:54;;;;;;;5.00;4.17;;;;;;;;;;778613;180;918624;-66
2023/09/17 10:53:20;;;;;;;4.23;3.10;;;;;;;;;;771492;178;920367;-61
2023/09/17 10:55:46;;;;;;;5.30;3.63;;;;;;;;;;773009;179;914097;-66
2023/09/17 10:58:14;;;;;;;6.20;3.30;;;;;;;;;;768118;181;919386;-65
2023/09/17 11:00:42;;;;;;;7.83;4.57;;;;;;;;;;772580;180;916574;-61
2023/09/17 11:03:05;;;;;;;4.63;3.80;;;;;;;;;;774552;177;919792;-60
2023/09/17 11:05:31;;;;;;;5.35;3.85;;;;;;;;;;775693;180;919504;-62
2023/09/17 11:07:56;;;;;;;6.73;4.30;;;;;;;;;;774298;180;818621;-60
2023/09/17 11:10:22;;;;;;;4.93;4.10;;;;;;;;;;775855;180;920088;-60
2023/09/17 11:12:48;;;;;;;4.80;3.97;;;;;;;;;;773574;178;900701;-67
2023/09/17 11:15:14;;;;;;;5.67;3.87;;;;;;;;;;775846;180;816733;-60
2023/09/17 11:17:40;;;;;;;4.63;3.50;;;;;;;;;;765392;180;919348;-68
2023/09/17 11:20:07;;;;;;;4.87;3.93;;;;;;;;;;773731;178;807247;-61
2023/09/17 11:22:32;;;;;;;5.80;3.77;;;;;;;;;;776519;180;789213;-61
2023/09/17 11:24:57;;;;;;;4.50;3.73;;;;;;;;;;771810;180;917704;-60
2023/09/17 11:27:23;;;;;;;6.97;4.13;;;;;;;;;;773402;179;917804;-66
2023/09/17 11:29:49;;;;;;;4.83;4.17;;;;;;;;;;765733;180;921060;-60
2023/09/17 11:32:20;;;;;;;5.50;4.37;;;;;;;;;;765469;181;937193;-65
2023/09/17 11:34:46;;;;;;;6.10;4.50;;;;;;;;;;770643;178;898479;-60
2023/09/17 11:37:12;;;;;;;5.60;4.60;;;;;;;;;;772617;181;788552;-61
2023/09/17 11:39:38;;;;;;;5.50;4.40;;;;;;;;;;776635;181;918807;-61
2023/09/17 11:42:05;;;;;;;6.60;4.00;;;;;;;;;;775290;181;717403;-67
2023/09/17 11:44:31;;;;;;;5.30;4.47;;;;;;;;;;768927;181;835401;-60
2023/09/17 11:46:57;;;;;;;7.30;4.77;;;;;;;;;;775778;181;816742;-60
2023/09/17 11:49:22;;;;;;;6.63;4.47;;;;;;;;;;776529;178;818052;-66
2023/09/17 11:51:48;;;;;;;4.90;3.73;;;;;;;;;;775481;180;619601;-66
2023/09/17 11:54:15;;;;;;;5.30;3.87;;;;;;;;;;773447;178;925143;-61
2023/09/17 11:56:46;;;;;;;5.20;4.03;;;;;;;;;;776358;180;919352;-60
2023/09/17 11:59:15;;;;;;;6.13;4.73;;;;;;;;;;772763;180;918089;-67
2023/09/17 12:01:38;;;;;;;8.83;4.40;;;;;;;;;;771124;181;919304;-62
2023/09/17 12:04:04;;;;;;;9.53;4.50;;;;;;;;;;775426;179;612850;-67
2023/09/17 12:06:30;;;;;;;5.03;4.07;;;;;;;;;;768048;180;636063;-61
2023/09/17 12:08:56;;;;;;;7.33;4.23;;;;;;;;;;774612;180;636330;-63
2023/09/17 12:11:22;;;;;;;6.53;4.83;;;;;;;;;;776558;180;764385;-66
2023/09/17 12:13:53;;;;;;;5.73;4.60;;;;;;;;;;775943;180;923581;-65
2023/09/17 12:16:15;;;;;;;7.07;4.43;;;;;;;;;;776796;179;912830;-65
2023/09/17 12:18:41;;;;;;;5.03;4.50;;;;;;;;;;774060;179;918659;-60
2023/09/17 12:21:09;;;;;;;5.10;4.43;;;;;;;;;;778485;180;917589;-60
2023/09/17 12:23:47;;;;;;;5.97;4.57;;;;;;;;;;771131;178;916822;-66
2023/09/17 12:26:05;;;;;;;6.47;4.73;;;;;;;;;;776719;180;634614;-67
2023/09/17 12:28:31;;;;;;;6.20;4.77;;;;;;;;;;776086;178;627663;-65
2023/09/17 12:30:56;;;;;;;6.40;4.80;;;;;;;;;;778915;180;616222;-60
2023/09/17 12:33:22;;;;;;;6.03;5.33;;;;;;;;;;770104;178;625311;-66
2023/09/17 12:35:48;;;;;;;4.97;4.40;;;;;;;;;;774523;180;626116;-67
2023/09/17 12:38:14;;;;;;;8.30;4.87;;;;;;;;;;782656;177;625901;-66
2023/09/17 12:40:40;;;;;;;5.60;4.20;;;;;;;;;;775998;180;913597;-59
2023/09/17 12:43:07;;;;;;;4.90;4.10;;;;;;;;;;773123;178;916687;-59
2023/09/17 12:45:32;;;;;;;6.77;4.20;;;;;;;;;;783929;178;623651;-65
2023/09/17 12:47:57;;;;;;;4.97;3.97;;;;;;;;;;779101;180;616941;-62
2023/09/17 12:50:23;;;;;;;5.30;4.30;;;;;;;;;;772150;180;798996;-60
2023/09/17 12:52:49;;;;;;;5.50;4.47;;;;;;;;;;779389;178;618791;-61
2023/09/17 12:55:15;;;;;;;3.87;3.37;;;;;;;;;;779845;177;660105;-68
2023/09/17 12:57:41;;;;;;;4.10;3.70;;;;;;;;;;770156;180;914986;-61
2023/09/17 13:00:07;;;;;;;4.80;3.63;;;;;;;;;;770691;180;914996;-67
2023/09/17 13:02:34;;;;;;;8.00;4.83;;;;;;;;;;779361;177;916701;-68
2023/09/17 13:04:59;;;;;;;4.80;3.90;;;;;;;;;;768992;181;843623;-60
2023/09/17 13:07:25;;;;;;;7.27;4.73;;;;;;;;;;764273;180;947858;-60
2023/09/17 13:09:53;;;;;;;6.00;3.93;;;;;;;;;;778479;180;924403;-61
2023/09/17 13:12:19;;;;;;;6.87;4.63;;;;;;;;;;771383;177;911786;-68
2023/09/17 13:14:47;;;;;;;4.47;3.43;;;;;;;;;;773427;180;921104;-59
2023/09/17 13:17:11;;;;;;;6.27;4.40;;;;;;;;;;775066;180;929393;-61
2023/09/17 13:19:37;;;;;;;9.43;4.80;;;;;;;;;;771337;180;918256;-60
2023/09/17 13:22:03;;;;;;;5.40;3.80;;;;;;;;;;765922;178;920426;-66
2023/09/17 13:24:30;;;;;;;5.97;4.20;;;;;;;;;;761378;181;922667;-67
2023/09/17 13:26:59;;;;;;;6.70;4.77;;;;;;;;;;778017;181;737828;-60
2023/09/17 13:29:40;;;;;;;5.17;4.30;;;;;;;;;;776110;180;816123;-61
2023/09/17 13:32:08;;;;;;;5.73;4.30;;;;;;;;;;771830;180;919268;-67
2023/09/17 13:34:33;;;;;;;7.13;4.23;;;;;;;;;;768997;178;891028;-67
2023/09/17 13:36:58;;;;;;;4.63;4.07;;;;;;;;;;774571;180;919506;-60
2023/09/17 13:39:24;;;;;;;4.47;3.70;;;;;;;;;;766671;180;915272;-66
2023/09/17 13:41:50;;;;;;;6.27;4.60;;;;;;;;;;767110;180;915992;-61
2023/09/17 13:44:16;;;;;;;5.67;4.40;;;;;;;;;;771904;178;919216;-67
2023/09/17 13:46:45;;;;;;;5.10;4.37;;;;;;;;;;778186;178;909654;-66
2023/09/17 13:49:10;;;;;;;6.37;3.83;;;;;;;;;;772611;180;919863;-60
2023/09/17 13:51:36;;;;;;;5.90;4.20;;;;;;;;;;771284;181;910039;-67
2023/09/17 13:54:02;;;;;;;7.43;4.73;;;;;;;;;;774576;180;919244;-61
2023/09/17 13:56:28;;;;;;;4.73;3.83;;;;;;;;;;773226;180;817439;-66
2023/09/17 13:58:55;;;;;;;5.50;4.67;;;;;;;;;;773483;181;822013;-67
2023/09/17 14:01:21;;;;;;;5.07;4.53;;;;;;;;;;777248;180;888709;-68
2023/09/17 14:03:46;;;;;;;5.43;3.90;;;;;;;;;;773352;179;914545;-68
2023/09/17 14:06:12;;;;;;;6.07;4.33;;;;;;;;;;768561;180;918355;-59
2023/09/17 14:08:38;;;;;;;5.77;4.40;;;;;;;;;;771860;181;919099;-68
2023/09/17 14:11:04;;;;;;;5.47;3.87;;;;;;;;;;779694;178;720460;-67
2023/09/17 14:13:30;;;;;;;7.13;4.43;;;;;;;;;;773961;180;920082;-67
2023/09/17 14:15:56;;;;;;;5.60;4.37;;;;;;;;;;780039;177;629146;-60
2023/09/17 14:18:22;;;;;;;15.03;4.80;;;;;;;;;;777553;180;916963;-67
2023/09/17 14:20:47;;;;;;;5.30;4.43;;;;;;;;;;770858;177;918801;-66